createdAt,value
2023-03-02T00:02:15.953Z,46.20
2023-03-02T00:05:04.232Z,43.97
2023-03-02T00:07:33.508Z,55.55
2023-03-02T00:10:00.587Z,43.67
2023-03-02T00:12:31.020Z,48.55
2023-03-02T00:14:57.846Z,44.58
2023-03-02T00:17:27.895Z,49.55
2023-03-02T00:19:55.708Z,46.83
2023-03-02T00:22:22.368Z,46.05
2023-03-02T00:24:49.014Z,47.00
2023-03-02T00:27:15.747Z,46.83
2023-03-02T00:29:42.550Z,48.05
2023-03-02T00:32:09.327Z,46.85
2023-03-02T00:34:36.156Z,48.30
2023-03-02T00:37:02.870Z,51.97
2023-03-02T00:39:30.306Z,52.10
2023-03-02T00:41:56.977Z,44.53
2023-03-02T00:44:23.817Z,52.17
2023-03-02T00:46:50.644Z,49.42
2023-03-02T00:49:17.331Z,47.38
2023-03-02T00:51:44.012Z,45.58
2023-03-02T00:54:10.826Z,45.85
2023-03-02T00:56:37.722Z,50.80
2023-03-02T00:59:26.173Z,54.00
2023-03-02T01:02:00.970Z,46.08
2023-03-02T01:04:38.960Z,51.13
2023-03-02T01:07:12.276Z,50.03
2023-03-02T01:09:40.846Z,53.80
2023-03-02T01:12:10.349Z,54.78
2023-03-02T01:14:39.010Z,50.83
2023-03-02T01:17:07.036Z,52.28
2023-03-02T01:19:35.217Z,49.33
2023-03-02T01:22:02.587Z,50.00
2023-03-02T01:24:29.283Z,45.85
2023-03-02T01:26:56.190Z,47.33
2023-03-02T01:29:22.958Z,51.55
2023-03-02T01:31:50.071Z,55.42
2023-03-02T01:34:16.975Z,50.55
2023-03-02T01:36:47.294Z,54.60
2023-03-02T01:39:17.401Z,48.53
2023-03-02T01:41:45.883Z,55.47
2023-03-02T01:44:39.749Z,59.42
2023-03-02T01:47:33.882Z,50.70
2023-03-02T01:50:23.199Z,57.75
2023-03-02T01:52:55.217Z,54.05
2023-03-02T01:55:25.681Z,53.58
2023-03-02T01:57:54.616Z,56.53
2023-03-02T02:00:25.389Z,51.38
2023-03-02T02:02:54.419Z,50.38
2023-03-02T02:05:25.462Z,56.28
2023-03-02T02:07:52.494Z,54.03
2023-03-02T02:10:20.139Z,54.45
2023-03-02T02:12:46.793Z,50.78
2023-03-02T02:15:13.517Z,54.85
2023-03-02T02:17:40.481Z,56.58
2023-03-02T02:20:39.476Z,52.47
2023-03-02T02:23:32.841Z,47.97
2023-03-02T02:26:18.292Z,53.20
2023-03-02T02:28:49.195Z,53.97
2023-03-02T02:31:42.125Z,56.22
2023-03-02T02:34:31.750Z,53.70
2023-03-02T02:37:09.188Z,58.85
2023-03-02T02:39:40.131Z,53.58
2023-03-02T02:42:13.849Z,53.83
2023-03-02T02:44:40.774Z,51.20
2023-03-02T02:47:21.545Z,54.88
2023-03-02T02:49:51.697Z,56.83
2023-03-02T02:52:21.774Z,51.83
2023-03-02T02:54:51.364Z,56.70
2023-03-02T02:57:20.385Z,55.17
2023-03-02T02:59:57.884Z,58.90
2023-03-02T03:02:30.561Z,51.05
2023-03-02T03:05:03.172Z,49.75
2023-03-02T03:07:33.040Z,53.05
2023-03-02T03:10:23.291Z,53.13
2023-03-02T03:12:50.793Z,53.78
2023-03-02T03:15:20.354Z,47.80
2023-03-02T03:17:58.422Z,52.15
2023-03-02T03:20:28.005Z,49.85
2023-03-02T03:22:55.307Z,49.50
2023-03-02T03:25:26.347Z,49.65
2023-03-02T03:30:22.592Z,55.40
2023-03-02T03:32:49.536Z,56.95
2023-03-02T03:35:16.856Z,51.15
2023-03-02T03:37:43.943Z,52.08
2023-03-02T03:40:11.651Z,51.88
2023-03-02T03:42:41.346Z,47.75
2023-03-02T03:45:08.994Z,49.75
2023-03-02T03:47:37.109Z,50.88
2023-03-02T03:50:06.115Z,51.55
2023-03-02T03:52:33.341Z,49.90
2023-03-02T03:55:08.556Z,48.55
2023-03-02T03:57:35.246Z,46.13
2023-03-02T04:00:02.786Z,48.92
2023-03-02T04:02:41.135Z,48.72
2023-03-02T04:05:08.534Z,55.30
2023-03-02T04:07:37.102Z,53.45
2023-03-02T04:10:05.854Z,50.17
2023-03-02T04:12:38.144Z,49.75
2023-03-02T04:15:08.509Z,53.97
2023-03-02T04:17:35.591Z,52.88
2023-03-02T04:20:07.258Z,46.97
2023-03-02T04:22:34.130Z,48.88
2023-03-02T04:25:01.095Z,47.63
2023-03-02T04:27:28.091Z,50.67
2023-03-02T04:29:55.006Z,53.97
2023-03-02T04:32:22.059Z,50.17
2023-03-02T04:34:53.833Z,49.75
2023-03-02T04:37:20.632Z,47.03
2023-03-02T04:39:51.509Z,46.88
2023-03-02T04:42:21.850Z,50.55
2023-03-02T04:44:49.080Z,50.38
2023-03-02T04:47:16.024Z,51.05
2023-03-02T04:49:42.780Z,51.67
2023-03-02T04:52:09.621Z,50.03
2023-03-02T04:54:36.320Z,49.97
2023-03-02T04:57:03.042Z,50.05
2023-03-02T04:59:29.749Z,48.13
2023-03-02T05:01:58.917Z,48.78
2023-03-02T05:04:27.138Z,49.45
2023-03-02T05:06:54.159Z,53.00
2023-03-02T05:09:27.083Z,53.08
2023-03-02T05:11:58.915Z,49.72
2023-03-02T05:14:26.211Z,47.38
2023-03-02T05:16:53.490Z,54.28
2023-03-02T05:19:20.225Z,52.70
2023-03-02T05:21:46.986Z,50.97
2023-03-02T05:24:13.908Z,53.38
2023-03-02T05:26:41.030Z,53.90
2023-03-02T05:29:08.028Z,52.00
2023-03-02T05:31:40.609Z,68.38
2023-03-02T05:34:10.324Z,58.47
2023-03-02T05:36:38.034Z,53.60
2023-03-02T05:39:06.360Z,51.40
2023-03-02T05:41:33.179Z,51.75
2023-03-02T05:44:00.148Z,49.22
2023-03-02T05:46:27.348Z,45.75
2023-03-02T05:48:54.547Z,45.45
2023-03-02T05:51:21.512Z,50.58
2023-03-02T05:53:48.247Z,47.83
2023-03-02T05:56:15.022Z,46.00
2023-03-02T05:58:41.674Z,48.53
2023-03-02T06:01:12.667Z,47.90
2023-03-02T06:03:42.633Z,45.53
2023-03-02T06:06:14.043Z,48.97
2023-03-02T06:08:42.188Z,41.17
2023-03-02T06:11:09.404Z,43.95
2023-03-02T06:13:37.659Z,44.28
2023-03-02T06:16:04.967Z,46.65
2023-03-02T06:18:31.674Z,47.03
2023-03-02T06:20:59.557Z,46.80
2023-03-02T06:23:26.245Z,47.25
2023-03-02T06:25:52.950Z,49.55
2023-03-02T06:28:20.288Z,49.53
2023-03-02T06:30:48.668Z,44.45
2023-03-02T06:33:18.023Z,46.17
2023-03-02T06:35:45.374Z,41.28
2023-03-02T06:38:12.140Z,48.22
2023-03-02T06:40:38.957Z,43.65
2023-03-02T06:43:05.692Z,43.38
2023-03-02T06:45:33.799Z,43.42
2023-03-02T06:48:01.659Z,44.17
2023-03-02T06:50:28.630Z,49.70
2023-03-02T06:52:55.566Z,48.22
2023-03-02T06:55:22.377Z,44.10
2023-03-02T06:57:49.219Z,42.90
2023-03-02T07:00:17.194Z,48.30
2023-03-02T07:02:44.960Z,45.17
2023-03-02T07:05:12.913Z,46.80
2023-03-02T07:07:40.041Z,46.97
2023-03-02T07:10:07.698Z,38.97
2023-03-02T07:12:34.742Z,46.35
2023-03-02T07:15:01.478Z,43.17
2023-03-02T07:17:28.219Z,44.60
2023-03-02T07:19:54.928Z,40.20
2023-03-02T07:22:21.773Z,39.75
2023-03-02T07:24:48.413Z,42.70
2023-03-02T07:27:15.073Z,40.17
2023-03-02T07:29:41.733Z,38.10
2023-03-02T07:32:10.198Z,41.22
2023-03-02T07:34:38.764Z,41.65
2023-03-02T07:37:05.503Z,38.10
2023-03-02T07:39:32.230Z,40.50
2023-03-02T07:42:00.296Z,42.83
2023-03-02T07:44:28.790Z,41.92
2023-03-02T07:46:55.777Z,40.33
2023-03-02T07:49:22.563Z,46.78
2023-03-02T07:51:49.264Z,41.13
2023-03-02T07:54:15.941Z,37.67
2023-03-02T07:56:42.640Z,37.83
2023-03-02T07:59:09.533Z,37.10
2023-03-02T08:01:36.292Z,41.38
2023-03-02T08:04:03.057Z,44.83
2023-03-02T08:06:29.908Z,38.60
2023-03-02T08:08:56.842Z,37.10
2023-03-02T08:11:23.639Z,40.67
2023-03-02T08:13:50.360Z,39.15
2023-03-02T08:16:17.070Z,40.13
2023-03-02T08:18:44.277Z,35.55
2023-03-02T08:21:16.771Z,35.88
2023-03-02T08:26:13.464Z,38.35
2023-03-02T08:28:41.276Z,35.63
2023-03-02T08:31:08.850Z,34.67
2023-03-02T08:33:36.607Z,33.78
2023-03-02T08:36:23.563Z,38.25
2023-03-02T08:38:50.283Z,35.45
2023-03-02T08:41:19.957Z,38.95
2023-03-02T08:43:47.553Z,32.30
2023-03-02T08:46:17.037Z,34.08
2023-03-02T08:48:44.337Z,33.20
2023-03-02T08:51:15.552Z,33.50
2023-03-02T08:53:44.820Z,32.08
2023-03-02T08:56:24.892Z,30.73
2023-03-02T08:58:53.140Z,32.08
2023-03-02T09:01:24.053Z,37.63
2023-03-02T09:03:51.607Z,37.78
2023-03-02T09:06:18.830Z,33.45
2023-03-02T09:08:45.635Z,32.47
2023-03-02T09:11:12.811Z,34.53
2023-03-02T09:13:39.673Z,34.60
2023-03-02T09:16:08.531Z,32.75
2023-03-02T09:18:36.188Z,34.45
2023-03-02T09:21:03.352Z,36.00
2023-03-02T09:23:30.854Z,30.33
2023-03-02T09:25:57.621Z,44.00
2023-03-02T09:28:24.648Z,53.03
2023-03-02T09:30:53.204Z,39.92
2023-03-02T09:33:20.905Z,37.47
2023-03-02T09:35:47.706Z,35.83
2023-03-02T09:38:18.585Z,156.30
2023-03-02T09:41:08.413Z,73.10
2023-03-02T09:43:45.193Z,48.08
2023-03-02T09:46:20.492Z,35.38
2023-03-02T09:48:52.743Z,32.97
2023-03-02T09:51:37.326Z,33.97
2023-03-02T09:54:14.262Z,32.63
2023-03-02T09:56:47.584Z,30.90
2023-03-02T09:59:27.995Z,32.00
2023-03-02T10:02:21.370Z,34.88
2023-03-02T10:04:51.512Z,30.23
2023-03-02T10:07:30.173Z,35.10
2023-03-02T10:10:23.346Z,28.50
2023-03-02T10:13:01.930Z,28.60
2023-03-02T10:15:40.705Z,27.30
2023-03-02T10:18:31.148Z,31.88
2023-03-02T10:21:09.410Z,26.00
2023-03-02T10:23:57.340Z,27.77
2023-03-02T10:26:24.038Z,28.88
2023-03-02T10:29:16.317Z,26.83
2023-03-02T10:31:43.393Z,28.52
2023-03-02T10:34:14.671Z,33.97
2023-03-02T10:36:44.477Z,30.17
2023-03-02T10:39:14.828Z,30.95
2023-03-02T10:42:02.491Z,31.77
2023-03-02T10:44:33.902Z,33.85
2023-03-02T10:47:00.621Z,29.30
2023-03-02T10:49:34.602Z,29.88
2023-03-02T10:52:06.813Z,32.90
2023-03-02T10:54:34.677Z,29.88
2023-03-02T10:57:04.576Z,34.15
2023-03-02T10:59:40.898Z,33.05
2023-03-02T11:02:27.089Z,34.85
2023-03-02T11:05:13.474Z,27.25
2023-03-02T11:07:40.129Z,31.08
2023-03-02T11:10:18.834Z,32.60
2023-03-02T11:12:48.737Z,27.80
2023-03-02T11:15:44.410Z,28.63
2023-03-02T11:18:26.012Z,31.90
2023-03-02T11:21:04.494Z,30.30
2023-03-02T11:23:50.167Z,32.97
2023-03-02T11:26:23.081Z,29.23
2023-03-02T11:28:59.373Z,34.95
2023-03-02T11:31:36.899Z,34.90
2023-03-02T11:34:26.461Z,29.90
2023-03-02T11:37:16.281Z,32.72
2023-03-02T11:39:56.222Z,25.80
2023-03-02T11:42:31.118Z,27.95
2023-03-02T11:45:03.398Z,31.60
2023-03-02T11:47:32.776Z,28.90
2023-03-02T11:50:07.500Z,29.58
2023-03-02T11:52:41.172Z,32.70
2023-03-02T11:55:24.755Z,31.13
2023-03-02T11:57:55.134Z,30.40
2023-03-02T12:00:36.897Z,30.98
2023-03-02T12:03:08.087Z,32.03
2023-03-02T12:05:38.791Z,30.40
2023-03-02T12:08:33.615Z,30.10
2023-03-02T12:11:36.076Z,31.48
2023-03-02T12:14:05.941Z,37.78
2023-03-02T12:16:43.080Z,33.47
2023-03-02T12:19:39.812Z,34.28
2023-03-02T12:22:10.604Z,33.55
2023-03-02T12:24:39.468Z,34.70
2023-03-02T12:27:15.360Z,33.38
2023-03-02T12:29:41.980Z,37.00
2023-03-02T12:32:30.979Z,37.78
2023-03-02T12:35:19.935Z,31.02
2023-03-02T12:37:57.098Z,37.33
2023-03-02T12:40:57.701Z,37.55
2023-03-02T12:43:35.913Z,38.35
2023-03-02T12:46:26.899Z,31.58
2023-03-02T12:49:03.098Z,32.25
2023-03-02T12:51:45.183Z,32.08
2023-03-02T12:54:33.192Z,32.75
2023-03-02T12:57:20.127Z,30.15
2023-03-02T12:59:54.714Z,35.17
2023-03-02T13:02:33.797Z,34.60
2023-03-02T13:05:01.829Z,36.10
2023-03-02T13:07:35.832Z,42.50
2023-03-02T13:10:08.484Z,41.28
2023-03-02T13:12:36.672Z,39.00
2023-03-02T13:15:03.668Z,43.40
2023-03-02T13:17:32.698Z,36.03
2023-03-02T13:20:01.472Z,32.50
2023-03-02T13:22:28.966Z,32.28
2023-03-02T13:25:00.285Z,30.17
2023-03-02T13:27:27.161Z,31.20
2023-03-02T13:29:58.303Z,29.75
2023-03-02T13:32:35.973Z,34.67
2023-03-02T13:35:03.421Z,32.78
2023-03-02T13:37:33.821Z,33.20
2023-03-02T13:40:21.889Z,31.75
2023-03-02T13:42:48.591Z,36.17
2023-03-02T13:45:23.684Z,31.45
2023-03-02T13:47:50.994Z,38.22
2023-03-02T13:50:26.163Z,34.20
2023-03-02T13:52:56.365Z,34.20
2023-03-02T13:55:24.159Z,38.72
2023-03-02T13:57:53.451Z,33.22
2023-03-02T14:00:33.866Z,29.55
2023-03-02T14:03:00.640Z,62.92
2023-03-02T14:05:33.239Z,59.38
2023-03-02T14:08:00.583Z,46.22
2023-03-02T14:10:27.527Z,46.90
2023-03-02T14:12:58.234Z,36.15
2023-03-02T14:15:25.177Z,37.28
2023-03-02T14:17:52.019Z,89.32
2023-03-02T14:20:20.023Z,78.75
2023-03-02T14:22:47.832Z,48.10
2023-03-02T14:25:15.116Z,44.35
2023-03-02T14:27:43.582Z,56.75
2023-03-02T14:30:20.773Z,97.55
2023-03-02T14:32:47.891Z,45.17
2023-03-02T14:35:16.566Z,46.55
2023-03-02T14:37:46.951Z,55.13
2023-03-02T14:40:18.631Z,78.07
2023-03-02T14:42:45.363Z,72.20
2023-03-02T14:45:12.527Z,65.60
2023-03-02T14:47:39.961Z,36.90
2023-03-02T14:50:07.021Z,37.25
2023-03-02T14:52:36.526Z,33.80
2023-03-02T14:55:07.818Z,46.25
2023-03-02T14:57:38.429Z,71.78
2023-03-02T15:00:07.213Z,61.25
2023-03-02T15:02:34.262Z,42.30
2023-03-02T15:05:00.975Z,34.30
2023-03-02T15:07:28.331Z,37.30
2023-03-02T15:09:56.565Z,94.95
2023-03-02T15:12:23.316Z,35.60
2023-03-02T15:14:50.106Z,40.30
2023-03-02T15:17:16.775Z,34.70
2023-03-02T15:19:43.412Z,34.25
2023-03-02T15:22:10.691Z,34.78
2023-03-02T15:24:37.401Z,39.10
2023-03-02T15:27:04.081Z,31.10
2023-03-02T15:29:30.813Z,37.08
2023-03-02T15:31:57.602Z,34.45
2023-03-02T15:34:24.557Z,36.30
2023-03-02T15:36:51.203Z,32.80
2023-03-02T15:39:17.872Z,30.92
2023-03-02T15:41:44.554Z,34.05
2023-03-02T15:44:22.092Z,35.67
2023-03-02T15:46:53.470Z,34.72
2023-03-02T15:49:22.829Z,39.22
2023-03-02T15:51:54.476Z,32.17
2023-03-02T15:54:21.893Z,35.63
2023-03-02T15:56:54.781Z,32.50
2023-03-02T15:59:29.370Z,34.95
2023-03-02T16:02:02.486Z,36.78
2023-03-02T16:04:31.352Z,43.90
2023-03-02T16:06:58.826Z,36.70
2023-03-02T16:09:26.460Z,36.78
2023-03-02T16:11:53.322Z,31.15
2023-03-02T16:14:20.090Z,33.78
2023-03-02T16:16:47.473Z,31.23
2023-03-02T16:19:18.789Z,31.45
2023-03-02T16:21:47.018Z,33.47
2023-03-02T16:24:15.979Z,35.95
2023-03-02T16:26:42.861Z,31.55
2023-03-02T16:29:11.121Z,34.33
2023-03-02T16:31:39.195Z,33.60
2023-03-02T16:34:08.840Z,32.05
2023-03-02T16:36:37.622Z,36.00
2023-03-02T16:39:05.851Z,35.08
2023-03-02T16:41:32.677Z,38.28
2023-03-02T16:44:00.197Z,33.13
2023-03-02T16:46:29.279Z,45.40
2023-03-02T16:48:56.598Z,37.67
2023-03-02T16:51:23.381Z,47.80
2023-03-02T16:53:50.223Z,50.28
2023-03-02T16:56:16.997Z,46.70
2023-03-02T16:58:43.814Z,51.08
2023-03-02T17:01:14.530Z,43.20
2023-03-02T17:03:42.121Z,46.10
2023-03-02T17:06:10.561Z,36.88
2023-03-02T17:08:37.248Z,40.35
2023-03-02T17:11:04.153Z,46.17
2023-03-02T17:13:30.802Z,41.75
2023-03-02T17:15:58.507Z,56.25
2023-03-02T17:18:28.906Z,47.75
2023-03-02T17:20:57.933Z,49.95
2023-03-02T17:23:25.612Z,44.25
2023-03-02T17:25:52.490Z,49.63
2023-03-02T17:28:19.205Z,51.90
2023-03-02T17:30:46.502Z,81.68
2023-03-02T17:33:13.329Z,65.70
2023-03-02T17:35:40.106Z,55.45
2023-03-02T17:38:06.781Z,46.00
2023-03-02T17:40:33.488Z,44.45
2023-03-02T17:43:00.187Z,45.08
2023-03-02T17:45:28.573Z,42.50
2023-03-02T17:47:57.681Z,46.35
2023-03-02T17:50:25.033Z,46.78
2023-03-02T17:52:51.767Z,42.20
2023-03-02T17:55:18.460Z,43.15
2023-03-02T17:57:45.153Z,45.40
2023-03-02T18:00:16.579Z,45.80
2023-03-02T18:02:43.276Z,47.15
2023-03-02T18:05:10.664Z,49.58
2023-03-02T18:07:37.948Z,51.45
2023-03-02T18:10:05.932Z,53.25
2023-03-02T18:12:33.188Z,47.92
2023-03-02T18:14:59.889Z,46.25
2023-03-02T18:17:26.580Z,51.17
2023-03-02T18:19:53.236Z,52.08
2023-03-02T18:22:21.845Z,45.38
2023-03-02T18:24:50.310Z,53.53
2023-03-02T18:27:17.125Z,45.80
2023-03-02T18:29:43.852Z,48.65
2023-03-02T18:32:11.246Z,57.55
2023-03-02T18:34:38.251Z,64.20
2023-03-02T18:37:04.915Z,56.15
2023-03-02T18:39:31.666Z,45.88
2023-03-02T18:41:58.368Z,59.08
2023-03-02T18:44:27.915Z,53.42
2023-03-02T18:46:55.877Z,47.08
2023-03-02T18:49:23.510Z,55.80
2023-03-02T18:51:50.401Z,49.75
2023-03-02T18:54:17.293Z,48.08
2023-03-02T18:56:43.946Z,48.80
2023-03-02T18:59:11.499Z,48.83
2023-03-02T19:01:38.311Z,48.20
2023-03-02T19:04:05.872Z,45.05
2023-03-02T19:06:33.140Z,49.70
2023-03-02T19:08:59.801Z,52.05
2023-03-02T19:11:26.807Z,47.90
2023-03-02T19:13:53.453Z,44.08
2023-03-02T19:16:20.242Z,39.17
2023-03-02T19:18:48.530Z,45.28
2023-03-02T19:21:15.677Z,45.78
2023-03-02T19:23:42.483Z,43.90
2023-03-02T19:26:09.378Z,42.90
2023-03-02T19:28:37.968Z,45.75
2023-03-02T19:31:06.832Z,40.28
2023-03-02T19:33:34.175Z,40.85
2023-03-02T19:36:00.961Z,45.40
2023-03-02T19:38:29.168Z,42.45
2023-03-02T19:40:57.828Z,42.92
2023-03-02T19:43:25.280Z,44.88
2023-03-02T19:45:52.767Z,45.03
2023-03-02T19:48:19.992Z,44.60
2023-03-02T19:50:47.116Z,47.92
2023-03-02T19:53:14.773Z,48.72
2023-03-02T19:55:42.503Z,55.70
2023-03-02T19:58:11.087Z,54.30
2023-03-02T20:00:38.783Z,47.65
2023-03-02T20:03:07.063Z,49.30
2023-03-02T20:05:33.847Z,48.47
2023-03-02T20:08:00.522Z,44.50
2023-03-02T20:10:30.166Z,42.35
2023-03-02T20:12:57.143Z,48.10
2023-03-02T20:15:23.837Z,44.20
2023-03-02T20:17:50.521Z,44.47
2023-03-02T20:20:17.229Z,38.70
2023-03-02T20:22:45.472Z,43.53
2023-03-02T20:25:14.407Z,38.67
2023-03-02T20:27:41.357Z,37.67
2023-03-02T20:30:12.906Z,37.85
2023-03-02T20:32:39.881Z,40.77
2023-03-02T20:35:06.764Z,42.40
2023-03-02T20:37:33.486Z,40.10
2023-03-02T20:40:00.434Z,38.08
2023-03-02T20:42:27.500Z,41.60
2023-03-02T20:44:56.316Z,42.30
2023-03-02T20:47:23.076Z,44.08
2023-03-02T20:49:50.048Z,36.95
2023-03-02T20:52:16.753Z,40.88
2023-03-02T20:54:43.870Z,40.90
2023-03-02T20:57:15.699Z,39.13
2023-03-02T20:59:45.651Z,41.60
2023-03-02T21:02:17.725Z,38.90
2023-03-02T21:04:45.124Z,34.50
2023-03-02T21:07:12.657Z,40.80
2023-03-02T21:09:40.114Z,39.50
2023-03-02T21:12:08.646Z,41.67
2023-03-02T21:14:35.639Z,38.05
2023-03-02T21:17:02.827Z,42.08
2023-03-02T21:19:29.547Z,38.40
2023-03-02T21:21:57.273Z,41.78
2023-03-02T21:24:24.701Z,36.67
2023-03-02T21:26:53.581Z,36.50
2023-03-02T21:29:23.141Z,37.08
2023-03-02T21:31:50.707Z,44.42
2023-03-02T21:34:18.947Z,45.38
2023-03-02T21:36:46.476Z,44.90
2023-03-02T21:39:13.698Z,43.28
2023-03-02T21:41:40.626Z,43.90
2023-03-02T21:44:07.619Z,43.25
2023-03-02T21:46:35.859Z,42.50
2023-03-02T21:49:02.655Z,44.45
2023-03-02T21:51:29.320Z,40.38
2023-03-02T21:53:56.023Z,41.97
2023-03-02T21:56:25.730Z,38.05
2023-03-02T21:58:55.751Z,41.67
2023-03-02T22:01:23.230Z,45.20
2023-03-02T22:03:50.281Z,37.58
2023-03-02T22:06:18.984Z,37.05
2023-03-02T22:08:45.762Z,33.97
2023-03-02T22:11:19.371Z,37.95
2023-03-02T22:13:48.103Z,39.15
2023-03-02T22:16:24.135Z,36.70
2023-03-02T22:18:56.013Z,37.90
2023-03-02T22:21:38.409Z,27.63
2023-03-02T22:24:12.425Z,35.95
2023-03-02T22:26:44.553Z,31.08
2023-03-02T22:29:25.388Z,32.42
2023-03-02T22:31:54.347Z,34.00
2023-03-02T22:34:27.325Z,35.10
2023-03-02T22:37:02.767Z,31.23
2023-03-02T22:39:33.401Z,32.17
2023-03-02T22:42:15.614Z,34.22
2023-03-02T22:44:43.360Z,33.22
2023-03-02T22:47:15.628Z,36.85
2023-03-02T22:49:42.626Z,34.40
2023-03-02T22:52:21.827Z,36.53
2023-03-02T22:54:48.951Z,34.15
2023-03-02T22:57:34.718Z,37.55
2023-03-02T23:00:16.808Z,34.20
2023-03-02T23:02:45.414Z,37.50
2023-03-02T23:05:38.064Z,37.92
2023-03-02T23:08:28.232Z,39.10
2023-03-02T23:11:00.294Z,37.92
2023-03-02T23:13:39.626Z,39.90
2023-03-02T23:16:28.000Z,36.25
2023-03-02T23:18:57.294Z,37.63
2023-03-02T23:21:33.674Z,46.47
2023-03-02T23:24:01.377Z,45.40
2023-03-02T23:26:28.037Z,39.20
2023-03-02T23:28:54.752Z,38.53
2023-03-02T23:31:21.519Z,39.85
2023-03-02T23:33:48.381Z,39.78
2023-03-02T23:36:15.513Z,37.88
2023-03-02T23:38:42.400Z,40.20
2023-03-02T23:41:09.825Z,40.80
2023-03-02T23:43:36.776Z,40.63
2023-03-02T23:46:03.692Z,38.47
2023-03-02T23:48:30.618Z,40.85
2023-03-02T23:50:57.490Z,38.08
2023-03-02T23:53:24.302Z,40.58
2023-03-02T23:55:54.307Z,36.80
2023-03-02T23:58:22.221Z,38.00
